Hauptseite
METAR-TAF:

METAR-TAF

Flughäfen :

Nancy, Frankreich

Breite: 48-41N, Länge: 006-13E, Höhe: 225 m

Beobachtung

Neuester Wetterbericht von vor 23 Minuten, um 09:30 UTC
Wind 9 kt aus Südwest, variierte zwischen Süd und West
Temperatur 15°C
Luftfeuchtigkeit 67%
Luftdruck 1010 hPa
Sichtweite 10 km oder mehr
Leicht bewölkt in der Höhe von 3100 ft
Aufgelockert bewölkt in der Höhe von 4900 ft
Durchbrochene Bewölkung in der Höhe von 5600 ft

METAR: LFSN 240930Z AUTO 23009KT 190V280 9999 FEW031 SCT049 BKN056 15/09 Q1010

Zeit: 11:53 (09:53 UTC)


TAF: fehlend

Wetterbeobachtungen und Prognosen von mehr als 4000 Flughäfen (METAR und TAF Bericht).

Die verfügbaren Stationen werden durch gelbe und rote Markierungen auf der Karte dargestellt.

Führen Sie die Maus auf sie, um den Namen der Station zu sehen.

Darauf klicken, um die Beobachtung von Wetterbeobachtungen und Prognosen zu sehen.

Um die Karte zu ändern : klicken Sie auf den grünen Tasten mit einem schwarzen Kreuz Zum Vergrößern, auf den grünen Button mit einem Gedankenstrich zu verkleinern, oder auf die grünen Pfeile für benachbarte Karten.


METAR-TAF: